Sao Paulo, Brazil
Current Conditions -  °F | °C
As of 9:00 PM on Wednesday 26 Nov 2014 (Local Time) from SBMT Reporting Station
Broken Clouds Broken Clouds  
Wind Chill: 72°   Ceiling: 3500
Heat Index: 72°   Visibility: 4mi
Dew Point: 68°   Wind: 3mph
Humidity: 88%   Direction: 140°SE
Pressure: 29.88"   Gusts: NA
Location:  23.53°S, 46.63°W
Report Text: SBMT 262300Z 14003KT 7000 SCT020 BKN035 22/20 Q1012
Loading
Personal Weather Stations






























Interactive Weather Map New forecast layout! Learn more

10-Day Weather Forecast

Advertisements
Track Severe Weather on mobile